CSF7 weather

Ottawa / Casselman (Shea Field)
Ottawa, Ontario, Canada

Public forecast

Using degrees Celsius for public forecast. Weather courtesy of forecast.io.

METAR (pilot weather report)

Closest report is Ottawa Macdonald-Cartier International Airport, 21.1 nm (39.0 km) W. Retrieved 2019/05/23 10:00 UTC (58 minutes ago):

CYOW 231000Z 09006KT 15SM SCT170 BKN240 10/06 A3002 RMK AC4CI2 SLP170

TAF (pilot weather forecast)

Closest forecast is Ottawa Macdonald-Cartier International Airport, 21.1 nm (39.0 km) W. Retrieved 2019/05/23 09:42 UTC (1 hour ago):

TAF CYOW 230838Z 2309/2406 10006KT P6SM BKN060 FM231100 12006KT P6SM SCT040 BKN140 FM231500 15010KT P6SM BKN030 BKN140 FM232000 17010G20KT 6SM -SHRA BR BKN020 OVC100 PROB30 2320/2323 VRB20G30KT 1SM +TSRA BR OVC008CB FM232300 25012G22KT P6SM -SHRA SCT015 BKN040 FM240400 29015G25KT P6SM -SHRA OVC015 RMK NXT FCST BY 231200Z